Terminal Aerodrome Forecast
Issued by NWS Central Illinois

Home | Current Version | Previous Version | Text Only | Print | Product List | Glossary On
Versions: 1 2 3 4 5 6 7 8 9 10 11 12 13 14 15 16
000
FTUS43 KILX 042338
TAFSPI
TAF
KSPI 042338Z 0500/0524 26005KT P6SM BKN004 OVC008
     FM050900 24004KT 1/2SM FG BKN003
     FM051600 17007KT P6SM BKN008
     FM051800 16008KT P6SM SCT025=

USA.gov is the U.S. government's official web portal to all federal, state and local government web resources and services.